sensor_id;sensor_type;location;lat;lon;timestamp;P1;durP1;ratioP1;P2;durP2;ratioP2
51286;SDS011;37364;46.974;18.916;2023-10-13T00:02:37;16.58;;;8.20;;
51286;SDS011;37364;46.974;18.916;2023-10-13T00:05:08;17.70;;;8.20;;
51286;SDS011;37364;46.974;18.916;2023-10-13T00:07:41;15.60;;;8.65;;
51286;SDS011;37364;46.974;18.916;2023-10-13T00:10:13;11.32;;;7.35;;
51286;SDS011;37364;46.974;18.916;2023-10-13T00:12:45;19.30;;;8.98;;
51286;SDS011;37364;46.974;18.916;2023-10-13T00:15:17;22.08;;;8.88;;
51286;SDS011;37364;46.974;18.916;2023-10-13T00:17:55;25.70;;;8.32;;
51286;SDS011;37364;46.974;18.916;2023-10-13T00:20:26;17.63;;;9.00;;
51286;SDS011;37364;46.974;18.916;2023-10-13T00:23:05;14.82;;;7.25;;
51286;SDS011;37364;46.974;18.916;2023-10-13T00:25:36;10.23;;;8.05;;
51286;SDS011;37364;46.974;18.916;2023-10-13T00:28:10;13.52;;;7.55;;
51286;SDS011;37364;46.974;18.916;2023-10-13T00:30:50;13.88;;;8.57;;
51286;SDS011;37364;46.974;18.916;2023-10-13T00:33:27;19.77;;;8.02;;
51286;SDS011;37364;46.974;18.916;2023-10-13T00:35:59;13.40;;;8.27;;
51286;SDS011;37364;46.974;18.916;2023-10-13T00:38:33;16.20;;;8.43;;
51286;SDS011;37364;46.974;18.916;2023-10-13T00:41:05;16.05;;;8.45;;
51286;SDS011;37364;46.974;18.916;2023-10-13T00:43:44;13.75;;;8.73;;
51286;SDS011;37364;46.974;18.916;2023-10-13T00:46:34;19.98;;;8.52;;
51286;SDS011;37364;46.974;18.916;2023-10-13T00:49:06;28.63;;;9.65;;
51286;SDS011;37364;46.974;18.916;2023-10-13T00:51:38;15.20;;;7.55;;
51286;SDS011;37364;46.974;18.916;2023-10-13T00:54:17;16.08;;;8.70;;
51286;SDS011;37364;46.974;18.916;2023-10-13T00:56:58;22.40;;;8.52;;
51286;SDS011;37364;46.974;18.916;2023-10-13T00:59:31;22.63;;;10.63;;
51286;SDS011;37364;46.974;18.916;2023-10-13T01:02:04;18.13;;;8.27;;
51286;SDS011;37364;46.974;18.916;2023-10-13T01:04:57;10.60;;;6.82;;
51286;SDS011;37364;46.974;18.916;2023-10-13T01:07:28;16.00;;;9.63;;
51286;SDS011;37364;46.974;18.916;2023-10-13T01:09:59;14.57;;;8.23;;
51286;SDS011;37364;46.974;18.916;2023-10-13T01:12:31;19.80;;;8.57;;
51286;SDS011;37364;46.974;18.916;2023-10-13T01:14:58;27.05;;;8.05;;
51286;SDS011;37364;46.974;18.916;2023-10-13T01:17:35;17.17;;;7.47;;
51286;SDS011;37364;46.974;18.916;2023-10-13T01:20:04;14.52;;;8.10;;
51286;SDS011;37364;46.974;18.916;2023-10-13T01:22:40;15.00;;;8.95;;
51286;SDS011;37364;46.974;18.916;2023-10-13T01:25:11;18.65;;;9.35;;
51286;SDS011;37364;46.974;18.916;2023-10-13T01:27:46;18.92;;;8.32;;
51286;SDS011;37364;46.974;18.916;2023-10-13T01:30:16;15.05;;;8.07;;
51286;SDS011;37364;46.974;18.916;2023-10-13T01:32:51;12.38;;;7.25;;
51286;SDS011;37364;46.974;18.916;2023-10-13T01:35:21;11.65;;;5.65;;
51286;SDS011;37364;46.974;18.916;2023-10-13T01:38:04;16.20;;;8.73;;
51286;SDS011;37364;46.974;18.916;2023-10-13T01:40:39;23.95;;;8.95;;
51286;SDS011;37364;46.974;18.916;2023-10-13T01:43:10;27.40;;;8.60;;
51286;SDS011;37364;46.974;18.916;2023-10-13T01:45:42;16.95;;;7.22;;
51286;SDS011;37364;46.974;18.916;2023-10-13T01:48:19;16.98;;;7.75;;
51286;SDS011;37364;46.974;18.916;2023-10-13T01:50:50;14.07;;;7.13;;
51286;SDS011;37364;46.974;18.916;2023-10-13T01:53:23;21.67;;;8.82;;
51286;SDS011;37364;46.974;18.916;2023-10-13T01:58:27;13.38;;;6.57;;
51286;SDS011;37364;46.974;18.916;2023-10-13T02:00:57;18.90;;;7.53;;
51286;SDS011;37364;46.974;18.916;2023-10-13T02:03:26;17.85;;;8.60;;
51286;SDS011;37364;46.974;18.916;2023-10-13T02:05:57;13.27;;;8.20;;
51286;SDS011;37364;46.974;18.916;2023-10-13T02:08:31;11.23;;;7.18;;
51286;SDS011;37364;46.974;18.916;2023-10-13T02:11:09;13.95;;;7.82;;
51286;SDS011;37364;46.974;18.916;2023-10-13T02:13:43;13.10;;;6.93;;
51286;SDS011;37364;46.974;18.916;2023-10-13T02:16:18;12.90;;;8.43;;
51286;SDS011;37364;46.974;18.916;2023-10-13T02:18:49;12.10;;;7.97;;
51286;SDS011;37364;46.974;18.916;2023-10-13T02:21:19;15.40;;;8.52;;
51286;SDS011;37364;46.974;18.916;2023-10-13T02:24:00;22.38;;;7.63;;
51286;SDS011;37364;46.974;18.916;2023-10-13T02:26:33;18.98;;;7.47;;
51286;SDS011;37364;46.974;18.916;2023-10-13T02:29:06;15.68;;;7.85;;
51286;SDS011;37364;46.974;18.916;2023-10-13T02:31:39;14.27;;;6.70;;
51286;SDS011;37364;46.974;18.916;2023-10-13T02:34:22;12.45;;;8.70;;
51286;SDS011;37364;46.974;18.916;2023-10-13T02:36:51;15.88;;;10.52;;
51286;SDS011;37364;46.974;18.916;2023-10-13T02:39:24;21.17;;;9.82;;
51286;SDS011;37364;46.974;18.916;2023-10-13T02:41:57;13.32;;;6.88;;
51286;SDS011;37364;46.974;18.916;2023-10-13T02:44:27;15.13;;;7.22;;
51286;SDS011;37364;46.974;18.916;2023-10-13T02:46:59;17.55;;;7.57;;
51286;SDS011;37364;46.974;18.916;2023-10-13T02:49:33;23.15;;;8.63;;
51286;SDS011;37364;46.974;18.916;2023-10-13T02:52:04;19.75;;;9.48;;
51286;SDS011;37364;46.974;18.916;2023-10-13T02:54:36;14.30;;;9.27;;
51286;SDS011;37364;46.974;18.916;2023-10-13T02:57:17;12.32;;;7.80;;
51286;SDS011;37364;46.974;18.916;2023-10-13T02:59:45;11.23;;;8.60;;
51286;SDS011;37364;46.974;18.916;2023-10-13T03:02:25;20.48;;;10.13;;
51286;SDS011;37364;46.974;18.916;2023-10-13T03:04:56;14.95;;;8.88;;
51286;SDS011;37364;46.974;18.916;2023-10-13T03:07:39;14.77;;;9.60;;
51286;SDS011;37364;46.974;18.916;2023-10-13T03:10:11;23.85;;;9.05;;
51286;SDS011;37364;46.974;18.916;2023-10-13T03:12:45;24.67;;;9.45;;
51286;SDS011;37364;46.974;18.916;2023-10-13T03:15:15;22.60;;;10.73;;
51286;SDS011;37364;46.974;18.916;2023-10-13T03:17:49;13.25;;;8.60;;
51286;SDS011;37364;46.974;18.916;2023-10-13T03:20:21;19.95;;;9.40;;
51286;SDS011;37364;46.974;18.916;2023-10-13T03:23:00;19.13;;;8.60;;
51286;SDS011;37364;46.974;18.916;2023-10-13T03:25:30;25.63;;;9.43;;
51286;SDS011;37364;46.974;18.916;2023-10-13T03:28:12;22.63;;;9.45;;
51286;SDS011;37364;46.974;18.916;2023-10-13T03:30:43;18.08;;;9.20;;
51286;SDS011;37364;46.974;18.916;2023-10-13T03:33:13;21.70;;;9.93;;
51286;SDS011;37364;46.974;18.916;2023-10-13T03:35:53;19.65;;;8.82;;
51286;SDS011;37364;46.974;18.916;2023-10-13T03:38:33;14.48;;;9.55;;
51286;SDS011;37364;46.974;18.916;2023-10-13T03:41:08;19.33;;;8.77;;
51286;SDS011;37364;46.974;18.916;2023-10-13T03:44:03;12.45;;;6.88;;
51286;SDS011;37364;46.974;18.916;2023-10-13T03:46:47;15.82;;;8.45;;
51286;SDS011;37364;46.974;18.916;2023-10-13T03:49:22;27.13;;;10.10;;
51286;SDS011;37364;46.974;18.916;2023-10-13T03:51:54;14.35;;;8.90;;
51286;SDS011;37364;46.974;18.916;2023-10-13T03:54:30;17.38;;;9.35;;
51286;SDS011;37364;46.974;18.916;2023-10-13T03:57:02;20.77;;;9.93;;
51286;SDS011;37364;46.974;18.916;2023-10-13T03:59:47;10.80;;;7.18;;
51286;SDS011;37364;46.974;18.916;2023-10-13T04:02:23;17.55;;;8.77;;
51286;SDS011;37364;46.974;18.916;2023-10-13T04:07:37;14.57;;;7.45;;
51286;SDS011;37364;46.974;18.916;2023-10-13T04:10:34;11.38;;;7.38;;
51286;SDS011;37364;46.974;18.916;2023-10-13T04:13:17;17.60;;;8.52;;
51286;SDS011;37364;46.974;18.916;2023-10-13T04:16:07;19.63;;;9.10;;
51286;SDS011;37364;46.974;18.916;2023-10-13T04:19:01;16.63;;;9.63;;
51286;SDS011;37364;46.974;18.916;2023-10-13T04:21:51;19.05;;;10.18;;
51286;SDS011;37364;46.974;18.916;2023-10-13T04:24:41;18.85;;;9.55;;
51286;SDS011;37364;46.974;18.916;2023-10-13T04:27:40;16.80;;;9.95;;
51286;SDS011;37364;46.974;18.916;2023-10-13T04:30:21;14.43;;;9.05;;
51286;SDS011;37364;46.974;18.916;2023-10-13T04:33:02;17.35;;;9.38;;
51286;SDS011;37364;46.974;18.916;2023-10-13T04:36:00;22.90;;;10.23;;
51286;SDS011;37364;46.974;18.916;2023-10-13T04:38:32;14.30;;;9.02;;
51286;SDS011;37364;46.974;18.916;2023-10-13T04:41:24;11.65;;;7.68;;
51286;SDS011;37364;46.974;18.916;2023-10-13T04:43:54;11.35;;;8.70;;
51286;SDS011;37364;46.974;18.916;2023-10-13T04:46:31;16.42;;;9.27;;
51286;SDS011;37364;46.974;18.916;2023-10-13T04:49:27;18.02;;;8.57;;
51286;SDS011;37364;46.974;18.916;2023-10-13T04:52:07;24.23;;;8.23;;
51286;SDS011;37364;46.974;18.916;2023-10-13T04:55:06;14.43;;;10.40;;
51286;SDS011;37364;46.974;18.916;2023-10-13T04:57:45;25.23;;;9.32;;
51286;SDS011;37364;46.974;18.916;2023-10-13T05:00:20;20.92;;;10.10;;
51286;SDS011;37364;46.974;18.916;2023-10-13T05:05:49;12.82;;;8.55;;
51286;SDS011;37364;46.974;18.916;2023-10-13T05:08:35;17.73;;;9.13;;
51286;SDS011;37364;46.974;18.916;2023-10-13T05:11:17;15.75;;;9.57;;
51286;SDS011;37364;46.974;18.916;2023-10-13T05:14:00;16.98;;;9.07;;
51286;SDS011;37364;46.974;18.916;2023-10-13T05:16:43;16.55;;;8.65;;
51286;SDS011;37364;46.974;18.916;2023-10-13T05:19:28;12.40;;;8.35;;
51286;SDS011;37364;46.974;18.916;2023-10-13T05:22:13;27.35;;;10.48;;
51286;SDS011;37364;46.974;18.916;2023-10-13T05:24:58;21.25;;;11.13;;
51286;SDS011;37364;46.974;18.916;2023-10-13T05:27:42;18.08;;;10.68;;
51286;SDS011;37364;46.974;18.916;2023-10-13T05:30:25;32.15;;;10.98;;
51286;SDS011;37364;46.974;18.916;2023-10-13T05:33:09;20.50;;;11.55;;
51286;SDS011;37364;46.974;18.916;2023-10-13T05:35:52;21.55;;;10.25;;
51286;SDS011;37364;46.974;18.916;2023-10-13T05:38:40;19.15;;;10.43;;
51286;SDS011;37364;46.974;18.916;2023-10-13T05:41:24;17.13;;;10.20;;
51286;SDS011;37364;46.974;18.916;2023-10-13T05:44:07;17.65;;;10.48;;
51286;SDS011;37364;46.974;18.916;2023-10-13T05:46:51;27.27;;;10.77;;
51286;SDS011;37364;46.974;18.916;2023-10-13T05:49:34;21.00;;;11.57;;
51286;SDS011;37364;46.974;18.916;2023-10-13T05:52:18;19.13;;;10.70;;
51286;SDS011;37364;46.974;18.916;2023-10-13T05:55:12;14.13;;;10.70;;
51286;SDS011;37364;46.974;18.916;2023-10-13T05:57:55;21.60;;;11.05;;
51286;SDS011;37364;46.974;18.916;2023-10-13T06:00:39;25.38;;;11.88;;
51286;SDS011;37364;46.974;18.916;2023-10-13T06:03:24;23.40;;;11.23;;
51286;SDS011;37364;46.974;18.916;2023-10-13T06:06:09;23.77;;;12.05;;
51286;SDS011;37364;46.974;18.916;2023-10-13T06:08:55;23.85;;;11.05;;
51286;SDS011;37364;46.974;18.916;2023-10-13T06:11:41;19.85;;;11.45;;
51286;SDS011;37364;46.974;18.916;2023-10-13T06:14:24;25.35;;;11.52;;
51286;SDS011;37364;46.974;18.916;2023-10-13T06:17:10;21.98;;;11.32;;
51286;SDS011;37364;46.974;18.916;2023-10-13T06:20:09;23.63;;;11.88;;
51286;SDS011;37364;46.974;18.916;2023-10-13T06:22:52;22.00;;;11.35;;
51286;SDS011;37364;46.974;18.916;2023-10-13T06:25:37;21.15;;;12.13;;
51286;SDS011;37364;46.974;18.916;2023-10-13T06:28:23;27.23;;;13.13;;
51286;SDS011;37364;46.974;18.916;2023-10-13T06:31:06;32.22;;;12.75;;
51286;SDS011;37364;46.974;18.916;2023-10-13T06:33:41;24.58;;;10.40;;
51286;SDS011;37364;46.974;18.916;2023-10-13T06:36:14;28.13;;;12.18;;
51286;SDS011;37364;46.974;18.916;2023-10-13T06:38:45;17.15;;;12.20;;
51286;SDS011;37364;46.974;18.916;2023-10-13T06:41:22;20.17;;;10.05;;
51286;SDS011;37364;46.974;18.916;2023-10-13T06:44:10;31.23;;;12.90;;
51286;SDS011;37364;46.974;18.916;2023-10-13T06:46:42;16.98;;;11.32;;
51286;SDS011;37364;46.974;18.916;2023-10-13T06:49:17;26.42;;;12.00;;
51286;SDS011;37364;46.974;18.916;2023-10-13T06:51:50;20.60;;;12.00;;
51286;SDS011;37364;46.974;18.916;2023-10-13T06:54:20;15.20;;;11.20;;
51286;SDS011;37364;46.974;18.916;2023-10-13T06:56:51;27.67;;;11.90;;
51286;SDS011;37364;46.974;18.916;2023-10-13T06:59:25;18.75;;;11.27;;
51286;SDS011;37364;46.974;18.916;2023-10-13T07:02:00;30.13;;;12.35;;
51286;SDS011;37364;46.974;18.916;2023-10-13T07:04:55;19.77;;;11.38;;
51286;SDS011;37364;46.974;18.916;2023-10-13T07:07:35;23.10;;;11.93;;
51286;SDS011;37364;46.974;18.916;2023-10-13T07:10:07;27.02;;;11.57;;
51286;SDS011;37364;46.974;18.916;2023-10-13T07:12:41;24.10;;;11.25;;
51286;SDS011;37364;46.974;18.916;2023-10-13T07:15:19;21.30;;;12.63;;
51286;SDS011;37364;46.974;18.916;2023-10-13T07:17:54;23.55;;;12.15;;
51286;SDS011;37364;46.974;18.916;2023-10-13T07:20:26;21.77;;;12.35;;
51286;SDS011;37364;46.974;18.916;2023-10-13T07:23:10;23.98;;;12.65;;
51286;SDS011;37364;46.974;18.916;2023-10-13T07:25:51;14.52;;;10.95;;
51286;SDS011;37364;46.974;18.916;2023-10-13T07:28:29;24.48;;;11.27;;
51286;SDS011;37364;46.974;18.916;2023-10-13T07:31:06;20.42;;;13.23;;
51286;SDS011;37364;46.974;18.916;2023-10-13T07:33:43;19.92;;;11.15;;
51286;SDS011;37364;46.974;18.916;2023-10-13T07:36:15;25.88;;;11.93;;
51286;SDS011;37364;46.974;18.916;2023-10-13T07:38:56;19.60;;;11.52;;
51286;SDS011;37364;46.974;18.916;2023-10-13T07:41:50;28.73;;;12.30;;
51286;SDS011;37364;46.974;18.916;2023-10-13T07:44:23;22.95;;;12.93;;
51286;SDS011;37364;46.974;18.916;2023-10-13T07:47:01;20.85;;;12.82;;
51286;SDS011;37364;46.974;18.916;2023-10-13T07:49:36;21.58;;;13.05;;
51286;SDS011;37364;46.974;18.916;2023-10-13T07:52:07;27.25;;;13.43;;
51286;SDS011;37364;46.974;18.916;2023-10-13T07:54:56;26.48;;;13.85;;
51286;SDS011;37364;46.974;18.916;2023-10-13T07:57:39;25.50;;;12.23;;
51286;SDS011;37364;46.974;18.916;2023-10-13T08:00:22;26.85;;;13.32;;
51286;SDS011;37364;46.974;18.916;2023-10-13T08:03:16;24.23;;;13.70;;
51286;SDS011;37364;46.974;18.916;2023-10-13T08:06:02;27.10;;;12.63;;
51286;SDS011;37364;46.974;18.916;2023-10-13T08:08:47;23.20;;;13.15;;
51286;SDS011;37364;46.974;18.916;2023-10-13T08:11:34;28.05;;;12.85;;
51286;SDS011;37364;46.974;18.916;2023-10-13T08:14:05;21.85;;;12.30;;
51286;SDS011;37364;46.974;18.916;2023-10-13T08:17:05;29.15;;;11.48;;
51286;SDS011;37364;46.974;18.916;2023-10-13T08:19:40;28.27;;;13.93;;
51286;SDS011;37364;46.974;18.916;2023-10-13T08:22:13;26.20;;;13.98;;
51286;SDS011;37364;46.974;18.916;2023-10-13T08:24:53;28.45;;;13.43;;
51286;SDS011;37364;46.974;18.916;2023-10-13T08:27:42;20.08;;;11.50;;
51286;SDS011;37364;46.974;18.916;2023-10-13T08:30:17;19.20;;;11.02;;
51286;SDS011;37364;46.974;18.916;2023-10-13T08:32:56;30.77;;;18.30;;
51286;SDS011;37364;46.974;18.916;2023-10-13T08:35:46;25.35;;;14.10;;
51286;SDS011;37364;46.974;18.916;2023-10-13T08:38:45;35.05;;;19.13;;
51286;SDS011;37364;46.974;18.916;2023-10-13T08:41:22;23.23;;;12.90;;
51286;SDS011;37364;46.974;18.916;2023-10-13T08:44:01;20.08;;;9.20;;
51286;SDS011;37364;46.974;18.916;2023-10-13T08:46:37;29.10;;;12.10;;
51286;SDS011;37364;46.974;18.916;2023-10-13T08:49:21;27.30;;;12.65;;
51286;SDS011;37364;46.974;18.916;2023-10-13T08:51:59;31.08;;;14.85;;
51286;SDS011;37364;46.974;18.916;2023-10-13T08:54:56;47.92;;;23.05;;
51286;SDS011;37364;46.974;18.916;2023-10-13T08:57:42;35.83;;;19.95;;
51286;SDS011;37364;46.974;18.916;2023-10-13T09:00:16;18.55;;;10.32;;
51286;SDS011;37364;46.974;18.916;2023-10-13T09:03:20;19.07;;;8.40;;
51286;SDS011;37364;46.974;18.916;2023-10-13T09:06:10;18.50;;;10.00;;
51286;SDS011;37364;46.974;18.916;2023-10-13T09:08:44;45.88;;;19.20;;
51286;SDS011;37364;46.974;18.916;2023-10-13T09:11:29;32.47;;;17.80;;
51286;SDS011;37364;46.974;18.916;2023-10-13T09:14:16;59.60;;;28.70;;
51286;SDS011;37364;46.974;18.916;2023-10-13T09:17:04;29.33;;;15.98;;
51286;SDS011;37364;46.974;18.916;2023-10-13T09:19:46;15.75;;;8.90;;
51286;SDS011;37364;46.974;18.916;2023-10-13T09:22:21;19.88;;;8.57;;
51286;SDS011;37364;46.974;18.916;2023-10-13T09:25:06;20.13;;;9.50;;
51286;SDS011;37364;46.974;18.916;2023-10-13T09:27:40;15.27;;;8.55;;
51286;SDS011;37364;46.974;18.916;2023-10-13T09:30:11;19.52;;;8.18;;
51286;SDS011;37364;46.974;18.916;2023-10-13T09:32:45;21.05;;;7.75;;
51286;SDS011;37364;46.974;18.916;2023-10-13T09:35:19;14.25;;;7.32;;
51286;SDS011;37364;46.974;18.916;2023-10-13T09:37:52;21.38;;;7.72;;
51286;SDS011;37364;46.974;18.916;2023-10-13T09:40:26;15.68;;;7.05;;
51286;SDS011;37364;46.974;18.916;2023-10-13T09:43:01;14.25;;;7.82;;
51286;SDS011;37364;46.974;18.916;2023-10-13T09:45:35;13.50;;;7.70;;
51286;SDS011;37364;46.974;18.916;2023-10-13T09:48:08;9.52;;;6.82;;
51286;SDS011;37364;46.974;18.916;2023-10-13T09:50:43;15.07;;;7.25;;
51286;SDS011;37364;46.974;18.916;2023-10-13T09:53:19;18.73;;;7.68;;
51286;SDS011;37364;46.974;18.916;2023-10-13T09:55:54;16.08;;;7.18;;
51286;SDS011;37364;46.974;18.916;2023-10-13T09:58:38;26.55;;;7.55;;
51286;SDS011;37364;46.974;18.916;2023-10-13T10:01:19;13.13;;;7.13;;
51286;SDS011;37364;46.974;18.916;2023-10-13T10:04:08;17.52;;;7.53;;
51286;SDS011;37364;46.974;18.916;2023-10-13T10:06:51;17.15;;;6.25;;
51286;SDS011;37364;46.974;18.916;2023-10-13T10:09:26;11.68;;;6.20;;
51286;SDS011;37364;46.974;18.916;2023-10-13T10:12:08;18.52;;;7.10;;
51286;SDS011;37364;46.974;18.916;2023-10-13T10:15:01;12.15;;;6.05;;
51286;SDS011;37364;46.974;18.916;2023-10-13T10:17:41;10.15;;;6.38;;
51286;SDS011;37364;46.974;18.916;2023-10-13T10:20:12;20.48;;;7.00;;
51286;SDS011;37364;46.974;18.916;2023-10-13T10:23:01;12.10;;;6.32;;
51286;SDS011;37364;46.974;18.916;2023-10-13T10:25:32;14.15;;;5.97;;
51286;SDS011;37364;46.974;18.916;2023-10-13T10:28:08;13.25;;;5.82;;
51286;SDS011;37364;46.974;18.916;2023-10-13T10:30:43;16.98;;;5.97;;
51286;SDS011;37364;46.974;18.916;2023-10-13T10:33:14;15.85;;;6.05;;
51286;SDS011;37364;46.974;18.916;2023-10-13T10:35:46;13.93;;;6.38;;
51286;SDS011;37364;46.974;18.916;2023-10-13T10:38:17;11.88;;;5.47;;
51286;SDS011;37364;46.974;18.916;2023-10-13T10:41:01;10.48;;;5.88;;
51286;SDS011;37364;46.974;18.916;2023-10-13T10:43:38;8.40;;;6.00;;
51286;SDS011;37364;46.974;18.916;2023-10-13T10:46:13;14.32;;;6.30;;
51286;SDS011;37364;46.974;18.916;2023-10-13T10:48:46;14.60;;;5.63;;
51286;SDS011;37364;46.974;18.916;2023-10-13T10:51:23;18.10;;;5.43;;
51286;SDS011;37364;46.974;18.916;2023-10-13T10:53:58;13.20;;;5.93;;
51286;SDS011;37364;46.974;18.916;2023-10-13T10:56:39;12.15;;;5.03;;
51286;SDS011;37364;46.974;18.916;2023-10-13T10:59:12;13.38;;;6.45;;
51286;SDS011;37364;46.974;18.916;2023-10-13T11:01:46;11.90;;;6.22;;
51286;SDS011;37364;46.974;18.916;2023-10-13T11:04:18;7.90;;;5.20;;
51286;SDS011;37364;46.974;18.916;2023-10-13T11:06:52;18.02;;;6.93;;
51286;SDS011;37364;46.974;18.916;2023-10-13T11:09:25;11.10;;;6.28;;
51286;SDS011;37364;46.974;18.916;2023-10-13T11:12:10;8.95;;;4.65;;
51286;SDS011;37364;46.974;18.916;2023-10-13T11:15:03;10.30;;;5.18;;
51286;SDS011;37364;46.974;18.916;2023-10-13T11:17:47;16.08;;;6.80;;
51286;SDS011;37364;46.974;18.916;2023-10-13T11:20:22;13.50;;;5.35;;
51286;SDS011;37364;46.974;18.916;2023-10-13T11:23:00;14.25;;;6.13;;
51286;SDS011;37364;46.974;18.916;2023-10-13T11:25:32;7.78;;;4.85;;
51286;SDS011;37364;46.974;18.916;2023-10-13T11:28:12;11.63;;;4.75;;
51286;SDS011;37364;46.974;18.916;2023-10-13T11:30:50;11.25;;;5.00;;
51286;SDS011;37364;46.974;18.916;2023-10-13T11:33:26;16.33;;;5.45;;
51286;SDS011;37364;46.974;18.916;2023-10-13T11:35:58;8.68;;;5.07;;
51286;SDS011;37364;46.974;18.916;2023-10-13T11:38:32;13.52;;;5.30;;
51286;SDS011;37364;46.974;18.916;2023-10-13T11:41:10;13.70;;;4.40;;
51286;SDS011;37364;46.974;18.916;2023-10-13T11:43:46;12.15;;;4.63;;
51286;SDS011;37364;46.974;18.916;2023-10-13T11:46:32;14.38;;;5.97;;
51286;SDS011;37364;46.974;18.916;2023-10-13T11:49:15;19.88;;;4.55;;
51286;SDS011;37364;46.974;18.916;2023-10-13T11:51:59;10.32;;;4.55;;
51286;SDS011;37364;46.974;18.916;2023-10-13T11:54:43;11.77;;;4.72;;
51286;SDS011;37364;46.974;18.916;2023-10-13T11:57:14;18.77;;;4.80;;
51286;SDS011;37364;46.974;18.916;2023-10-13T11:59:51;9.38;;;4.03;;
51286;SDS011;37364;46.974;18.916;2023-10-13T12:02:50;18.00;;;5.53;;
51286;SDS011;37364;46.974;18.916;2023-10-13T12:05:33;13.40;;;5.53;;
51286;SDS011;37364;46.974;18.916;2023-10-13T12:08:16;7.63;;;4.22;;
51286;SDS011;37364;46.974;18.916;2023-10-13T12:10:59;7.13;;;4.18;;
51286;SDS011;37364;46.974;18.916;2023-10-13T12:13:50;10.10;;;4.55;;
51286;SDS011;37364;46.974;18.916;2023-10-13T12:16:23;25.27;;;4.53;;
51286;SDS011;37364;46.974;18.916;2023-10-13T12:19:04;15.35;;;4.53;;
51286;SDS011;37364;46.974;18.916;2023-10-13T12:21:38;14.65;;;4.97;;
51286;SDS011;37364;46.974;18.916;2023-10-13T12:24:10;9.00;;;4.40;;
51286;SDS011;37364;46.974;18.916;2023-10-13T12:26:52;14.07;;;5.10;;
51286;SDS011;37364;46.974;18.916;2023-10-13T12:29:25;10.95;;;4.45;;
51286;SDS011;37364;46.974;18.916;2023-10-13T12:32:02;11.68;;;4.57;;
51286;SDS011;37364;46.974;18.916;2023-10-13T12:34:39;9.52;;;4.05;;
51286;SDS011;37364;46.974;18.916;2023-10-13T12:37:22;13.00;;;4.45;;
51286;SDS011;37364;46.974;18.916;2023-10-13T12:40:06;12.55;;;4.25;;
51286;SDS011;37364;46.974;18.916;2023-10-13T12:42:50;12.32;;;4.68;;
51286;SDS011;37364;46.974;18.916;2023-10-13T12:45:37;7.18;;;4.40;;
51286;SDS011;37364;46.974;18.916;2023-10-13T12:48:25;11.50;;;4.32;;
51286;SDS011;37364;46.974;18.916;2023-10-13T12:51:10;11.02;;;4.03;;
51286;SDS011;37364;46.974;18.916;2023-10-13T12:54:07;9.75;;;3.65;;
51286;SDS011;37364;46.974;18.916;2023-10-13T12:56:49;10.48;;;3.65;;
51286;SDS011;37364;46.974;18.916;2023-10-13T12:59:24;24.73;;;4.50;;
51286;SDS011;37364;46.974;18.916;2023-10-13T13:01:56;10.18;;;3.63;;
51286;SDS011;37364;46.974;18.916;2023-10-13T13:04:27;9.00;;;3.92;;
51286;SDS011;37364;46.974;18.916;2023-10-13T13:07:06;15.48;;;3.78;;
51286;SDS011;37364;46.974;18.916;2023-10-13T13:09:40;8.57;;;4.18;;
51286;SDS011;37364;46.974;18.916;2023-10-13T13:12:11;9.50;;;3.40;;
51286;SDS011;37364;46.974;18.916;2023-10-13T13:14:41;7.35;;;3.50;;
51286;SDS011;37364;46.974;18.916;2023-10-13T13:17:24;13.67;;;4.03;;
51286;SDS011;37364;46.974;18.916;2023-10-13T13:19:54;10.20;;;3.58;;
51286;SDS011;37364;46.974;18.916;2023-10-13T13:22:27;8.02;;;3.72;;
51286;SDS011;37364;46.974;18.916;2023-10-13T13:24:58;8.13;;;3.40;;
51286;SDS011;37364;46.974;18.916;2023-10-13T13:27:34;7.18;;;3.13;;
51286;SDS011;37364;46.974;18.916;2023-10-13T13:30:09;14.15;;;4.72;;
51286;SDS011;37364;46.974;18.916;2023-10-13T13:32:42;7.43;;;3.92;;
51286;SDS011;37364;46.974;18.916;2023-10-13T13:35:14;8.27;;;3.55;;
51286;SDS011;37364;46.974;18.916;2023-10-13T13:37:48;17.92;;;9.98;;
51286;SDS011;37364;46.974;18.916;2023-10-13T13:40:20;16.92;;;5.32;;
51286;SDS011;37364;46.974;18.916;2023-10-13T13:42:51;8.23;;;3.35;;
51286;SDS011;37364;46.974;18.916;2023-10-13T13:45:24;7.22;;;3.25;;
51286;SDS011;37364;46.974;18.916;2023-10-13T13:48:02;14.48;;;4.30;;
51286;SDS011;37364;46.974;18.916;2023-10-13T13:50:37;10.48;;;4.38;;
51286;SDS011;37364;46.974;18.916;2023-10-13T13:53:11;6.50;;;3.58;;
51286;SDS011;37364;46.974;18.916;2023-10-13T13:55:47;10.32;;;4.35;;
51286;SDS011;37364;46.974;18.916;2023-10-13T13:58:19;12.43;;;4.65;;
51286;SDS011;37364;46.974;18.916;2023-10-13T14:00:49;9.10;;;4.55;;
51286;SDS011;37364;46.974;18.916;2023-10-13T14:03:25;10.13;;;4.63;;
51286;SDS011;37364;46.974;18.916;2023-10-13T14:06:00;12.38;;;4.55;;
51286;SDS011;37364;46.974;18.916;2023-10-13T14:08:33;17.30;;;4.95;;
51286;SDS011;37364;46.974;18.916;2023-10-13T14:11:04;8.20;;;4.00;;
51286;SDS011;37364;46.974;18.916;2023-10-13T14:13:51;8.15;;;4.85;;
51286;SDS011;37364;46.974;18.916;2023-10-13T14:16:23;7.85;;;4.25;;
51286;SDS011;37364;46.974;18.916;2023-10-13T14:18:53;7.10;;;4.32;;
51286;SDS011;37364;46.974;18.916;2023-10-13T14:21:24;12.57;;;4.68;;
51286;SDS011;37364;46.974;18.916;2023-10-13T14:23:57;6.45;;;3.65;;
51286;SDS011;37364;46.974;18.916;2023-10-13T14:26:43;9.73;;;3.95;;
51286;SDS011;37364;46.974;18.916;2023-10-13T14:29:13;7.50;;;4.13;;
51286;SDS011;37364;46.974;18.916;2023-10-13T14:31:44;8.63;;;4.10;;
51286;SDS011;37364;46.974;18.916;2023-10-13T14:34:21;14.68;;;5.20;;
51286;SDS011;37364;46.974;18.916;2023-10-13T14:36:53;12.23;;;5.07;;
51286;SDS011;37364;46.974;18.916;2023-10-13T14:39:26;9.52;;;4.43;;
51286;SDS011;37364;46.974;18.916;2023-10-13T14:41:57;10.65;;;5.05;;
51286;SDS011;37364;46.974;18.916;2023-10-13T14:44:27;12.48;;;4.75;;
51286;SDS011;37364;46.974;18.916;2023-10-13T14:46:58;19.60;;;4.60;;
51286;SDS011;37364;46.974;18.916;2023-10-13T14:49:32;13.60;;;4.50;;
51286;SDS011;37364;46.974;18.916;2023-10-13T14:52:03;17.02;;;4.32;;
51286;SDS011;37364;46.974;18.916;2023-10-13T14:54:37;16.70;;;4.00;;
51286;SDS011;37364;46.974;18.916;2023-10-13T14:57:10;15.02;;;4.95;;
51286;SDS011;37364;46.974;18.916;2023-10-13T14:59:44;8.10;;;4.38;;
51286;SDS011;37364;46.974;18.916;2023-10-13T15:02:15;10.50;;;4.25;;
51286;SDS011;37364;46.974;18.916;2023-10-13T15:04:46;10.73;;;4.22;;
51286;SDS011;37364;46.974;18.916;2023-10-13T15:07:27;8.65;;;4.20;;
51286;SDS011;37364;46.974;18.916;2023-10-13T15:10:00;11.25;;;4.10;;
51286;SDS011;37364;46.974;18.916;2023-10-13T15:12:30;8.57;;;3.67;;
51286;SDS011;37364;46.974;18.916;2023-10-13T15:15:00;11.77;;;4.47;;
51286;SDS011;37364;46.974;18.916;2023-10-13T15:17:33;14.80;;;5.60;;
51286;SDS011;37364;46.974;18.916;2023-10-13T15:22:43;15.23;;;4.13;;
51286;SDS011;37364;46.974;18.916;2023-10-13T15:25:20;13.57;;;4.80;;
51286;SDS011;37364;46.974;18.916;2023-10-13T15:27:59;10.40;;;4.20;;
51286;SDS011;37364;46.974;18.916;2023-10-13T15:30:37;10.27;;;4.88;;
51286;SDS011;37364;46.974;18.916;2023-10-13T15:33:23;12.35;;;4.45;;